createdAt,value
2023-03-27T00:01:17.005Z,16.40
2023-03-27T00:03:44.766Z,13.80
2023-03-27T00:06:17.617Z,13.30
2023-03-27T00:08:46.679Z,12.70
2023-03-27T00:11:14.693Z,10.50
2023-03-27T00:13:49.043Z,10.80
2023-03-27T00:16:29.468Z,18.50
2023-03-27T00:19:01.413Z,17.80
2023-03-27T00:21:31.424Z,21.40
2023-03-27T00:23:58.129Z,18.10
2023-03-27T00:26:25.101Z,23.00
2023-03-27T00:28:53.096Z,23.40
2023-03-27T00:31:20.037Z,15.50
2023-03-27T00:33:46.933Z,13.90
2023-03-27T00:36:15.524Z,12.80
2023-03-27T00:38:44.223Z,11.90
2023-03-27T00:41:11.171Z,13.10
2023-03-27T00:43:45.298Z,11.70
2023-03-27T00:46:15.206Z,11.00
2023-03-27T00:48:47.448Z,11.40
2023-03-27T00:51:16.509Z,12.20
2023-03-27T00:53:46.158Z,11.40
2023-03-27T00:56:16.832Z,10.00
2023-03-27T00:59:16.897Z,14.40
2023-03-27T01:01:45.497Z,14.10
2023-03-27T01:04:12.992Z,15.70
2023-03-27T01:06:42.441Z,23.20
2023-03-27T01:09:10.017Z,19.80
2023-03-27T01:11:43.148Z,23.60
2023-03-27T01:14:37.904Z,20.70
2023-03-27T01:17:34.823Z,19.00
2023-03-27T01:20:04.336Z,16.60
2023-03-27T01:22:46.579Z,14.70
2023-03-27T01:25:40.907Z,17.90
2023-03-27T01:28:13.338Z,12.70
2023-03-27T01:30:56.768Z,17.80
2023-03-27T01:33:51.626Z,17.50
2023-03-27T01:36:27.655Z,18.00
2023-03-27T01:39:32.107Z,14.40
2023-03-27T01:42:14.492Z,12.20
2023-03-27T01:44:49.657Z,15.00
2023-03-27T01:47:47.878Z,13.40
2023-03-27T01:50:27.375Z,13.70
2023-03-27T01:53:05.015Z,12.20
2023-03-27T01:55:37.593Z,12.20
2023-03-27T01:58:14.257Z,15.60
2023-03-27T02:00:53.601Z,17.40
2023-03-27T02:03:42.299Z,18.30
2023-03-27T02:06:12.459Z,16.50
2023-03-27T02:09:01.421Z,15.40
2023-03-27T02:11:34.029Z,17.80
2023-03-27T02:14:07.330Z,20.20
2023-03-27T02:16:42.764Z,24.90
2023-03-27T02:19:15.092Z,21.00
2023-03-27T02:21:41.942Z,23.00
2023-03-27T02:24:09.306Z,16.40
2023-03-27T02:26:36.371Z,18.80
2023-03-27T02:29:24.303Z,20.70
2023-03-27T02:32:25.561Z,21.10
2023-03-27T02:35:15.724Z,18.80
2023-03-27T02:37:54.976Z,20.70
2023-03-27T02:40:24.963Z,25.20
2023-03-27T02:42:58.148Z,25.40
2023-03-27T02:45:32.447Z,27.80
2023-03-27T02:48:10.322Z,27.30
2023-03-27T02:51:10.298Z,29.80
2023-03-27T02:53:47.700Z,30.40
2023-03-27T02:56:17.907Z,31.40
2023-03-27T02:58:53.907Z,34.40
2023-03-27T03:01:22.712Z,31.30
2023-03-27T03:04:18.248Z,31.50
2023-03-27T03:06:45.805Z,32.20
2023-03-27T03:09:15.070Z,34.50
2023-03-27T03:11:54.260Z,34.10
2023-03-27T03:14:24.785Z,34.00
2023-03-27T03:16:52.099Z,36.90
2023-03-27T03:19:18.937Z,34.80
2023-03-27T03:21:49.680Z,33.00
2023-03-27T03:24:17.909Z,34.90
2023-03-27T03:26:45.417Z,37.20
2023-03-27T03:29:13.026Z,36.90
2023-03-27T03:31:43.631Z,39.50
2023-03-27T03:34:16.570Z,40.00
2023-03-27T03:36:45.129Z,37.20
2023-03-27T03:39:12.942Z,31.90
2023-03-27T03:41:39.881Z,35.00
2023-03-27T03:44:06.668Z,34.10
2023-03-27T03:46:33.522Z,33.80
2023-03-27T03:49:01.371Z,29.00
2023-03-27T03:51:28.891Z,30.60
2023-03-27T03:53:55.767Z,27.00
2023-03-27T03:56:22.516Z,30.00
2023-03-27T03:58:49.529Z,25.60
2023-03-27T04:01:20.871Z,27.40
2023-03-27T04:03:48.743Z,25.80
2023-03-27T04:06:21.243Z,21.80
2023-03-27T04:08:48.672Z,24.80
2023-03-27T04:11:15.378Z,22.60
2023-03-27T04:13:42.720Z,22.40
2023-03-27T04:16:09.907Z,23.60
2023-03-27T04:18:40.200Z,22.70
2023-03-27T04:21:15.053Z,28.70
2023-03-27T04:23:48.460Z,31.50
2023-03-27T04:26:16.337Z,25.80
2023-03-27T04:28:43.631Z,28.00
2023-03-27T04:31:11.166Z,27.10
2023-03-27T04:33:40.220Z,21.60
2023-03-27T04:36:08.382Z,22.20
2023-03-27T04:38:37.280Z,21.50
2023-03-27T04:41:05.524Z,21.20
2023-03-27T04:43:32.696Z,19.70
2023-03-27T04:45:59.594Z,22.40
2023-03-27T04:48:26.954Z,17.70
2023-03-27T04:50:54.144Z,21.30
2023-03-27T04:53:23.681Z,21.80
2023-03-27T04:55:53.494Z,21.30
2023-03-27T04:58:20.367Z,20.90
2023-03-27T05:00:50.870Z,22.00
2023-03-27T05:03:21.142Z,24.70
2023-03-27T05:05:52.747Z,19.70
2023-03-27T05:08:20.280Z,19.70
2023-03-27T05:10:47.642Z,19.50
2023-03-27T05:13:14.598Z,17.20
2023-03-27T05:15:42.006Z,17.20
2023-03-27T05:18:09.455Z,16.80
2023-03-27T05:20:37.322Z,16.30
2023-03-27T05:23:04.592Z,16.40
2023-03-27T05:25:32.951Z,13.70
2023-03-27T05:28:01.032Z,14.00
2023-03-27T05:30:29.082Z,13.50
2023-03-27T05:32:59.692Z,13.90
2023-03-27T05:35:28.782Z,14.40
2023-03-27T05:37:57.735Z,17.80
2023-03-27T05:40:26.360Z,14.30
2023-03-27T05:42:56.807Z,16.60
2023-03-27T05:45:24.486Z,15.80
2023-03-27T05:47:53.176Z,17.30
2023-03-27T05:50:23.095Z,17.30
2023-03-27T05:52:59.412Z,17.70
2023-03-27T05:55:28.055Z,15.40
2023-03-27T05:57:55.618Z,21.00
2023-03-27T06:00:26.568Z,16.10
2023-03-27T06:02:56.538Z,17.30
2023-03-27T06:05:25.261Z,16.30
2023-03-27T06:07:52.532Z,17.00
2023-03-27T06:10:22.706Z,17.30
2023-03-27T06:12:49.780Z,16.60
2023-03-27T06:15:16.830Z,16.40
2023-03-27T06:17:47.308Z,16.10
2023-03-27T06:20:15.763Z,18.90
2023-03-27T06:22:48.955Z,20.30
2023-03-27T06:25:16.882Z,18.20
2023-03-27T06:27:48.141Z,15.90
2023-03-27T06:30:17.597Z,17.20
2023-03-27T06:32:45.931Z,18.70
2023-03-27T06:35:14.863Z,17.10
2023-03-27T06:37:42.995Z,18.40
2023-03-27T06:40:10.805Z,16.70
2023-03-27T06:42:38.741Z,17.80
2023-03-27T06:45:06.673Z,16.70
2023-03-27T06:47:44.497Z,16.00
2023-03-27T06:50:15.196Z,16.00
2023-03-27T06:52:42.069Z,16.20
2023-03-27T06:55:14.747Z,17.30
2023-03-27T06:57:47.391Z,17.70
2023-03-27T07:00:17.765Z,20.70
2023-03-27T07:02:45.739Z,17.90
2023-03-27T07:05:13.595Z,17.90
2023-03-27T07:07:41.720Z,15.00
2023-03-27T07:10:10.052Z,18.80
2023-03-27T07:12:37.031Z,16.40
2023-03-27T07:15:06.919Z,18.10
2023-03-27T07:17:47.534Z,15.60
2023-03-27T07:20:15.765Z,13.50
2023-03-27T07:22:46.084Z,14.60
2023-03-27T07:25:13.332Z,14.30
2023-03-27T07:27:40.414Z,13.80
2023-03-27T07:30:12.573Z,13.30
2023-03-27T07:32:42.775Z,15.80
2023-03-27T07:35:11.093Z,12.60
2023-03-27T07:37:39.412Z,13.30
2023-03-27T07:40:13.578Z,15.40
2023-03-27T07:42:45.788Z,13.60
2023-03-27T07:45:14.005Z,11.60
2023-03-27T07:47:43.177Z,11.40
2023-03-27T07:50:19.339Z,17.40
2023-03-27T07:52:46.898Z,17.20
2023-03-27T07:55:18.180Z,18.50
2023-03-27T07:58:00.552Z,14.50
2023-03-27T08:00:30.120Z,15.60
2023-03-27T08:03:07.434Z,16.40
2023-03-27T08:05:35.307Z,10.00
2023-03-27T08:08:02.234Z,17.60
2023-03-27T08:10:29.189Z,15.80
2023-03-27T08:12:57.204Z,16.50
2023-03-27T08:15:25.490Z,16.40
2023-03-27T08:17:55.591Z,16.40
2023-03-27T08:20:24.391Z,15.60
2023-03-27T08:22:52.991Z,20.70
2023-03-27T08:25:22.845Z,15.50
2023-03-27T08:27:50.874Z,15.20
2023-03-27T08:30:18.423Z,13.60
2023-03-27T08:32:45.358Z,15.80
2023-03-27T08:35:12.605Z,20.20
2023-03-27T08:37:41.635Z,16.70
2023-03-27T08:40:19.706Z,19.20
2023-03-27T08:42:50.996Z,16.70
2023-03-27T08:45:24.114Z,15.60
2023-03-27T08:48:22.274Z,9.50
2023-03-27T08:51:20.305Z,7.80
2023-03-27T08:54:06.489Z,6.30
2023-03-27T08:56:34.819Z,6.60
2023-03-27T08:59:02.073Z,7.80
2023-03-27T09:01:47.307Z,10.30
2023-03-27T09:04:48.948Z,9.10
2023-03-27T09:07:29.104Z,10.30
2023-03-27T09:10:17.869Z,11.00
2023-03-27T09:13:27.937Z,75.30
2023-03-27T09:16:06.643Z,18.80
2023-03-27T09:18:33.591Z,27.70
2023-03-27T09:21:16.309Z,29.40
2023-03-27T09:23:46.603Z,15.90
2023-03-27T09:26:28.961Z,21.40
2023-03-27T09:29:19.858Z,14.50
2023-03-27T09:31:49.743Z,18.70
2023-03-27T09:34:24.662Z,12.00
2023-03-27T09:36:51.665Z,14.10
2023-03-27T09:39:27.960Z,14.20
2023-03-27T09:42:19.571Z,5.50
2023-03-27T09:44:52.569Z,5.90
2023-03-27T09:47:34.891Z,4.90
2023-03-27T09:50:54.298Z,3.20
2023-03-27T09:53:26.244Z,3.30
2023-03-27T09:56:03.975Z,4.90
2023-03-27T09:58:51.533Z,5.00
2023-03-27T10:01:28.154Z,5.10
2023-03-27T10:03:58.323Z,5.20
2023-03-27T10:06:30.970Z,3.40
2023-03-27T10:09:07.445Z,4.20
2023-03-27T10:11:36.832Z,4.40
2023-03-27T10:14:14.079Z,3.00
2023-03-27T10:16:42.679Z,2.90
2023-03-27T10:19:31.278Z,3.90
2023-03-27T10:22:04.666Z,5.50
2023-03-27T10:24:35.049Z,1.40
2023-03-27T10:27:19.941Z,4.80
2023-03-27T10:29:53.761Z,4.50
2023-03-27T10:32:50.053Z,2.70
2023-03-27T10:35:52.835Z,3.30
2023-03-27T10:38:29.270Z,3.70
2023-03-27T10:40:57.321Z,4.00
2023-03-27T10:43:40.173Z,5.70
2023-03-27T10:46:27.388Z,3.30
2023-03-27T10:49:22.423Z,5.70
2023-03-27T10:51:51.749Z,4.40
2023-03-27T10:54:32.033Z,7.30
2023-03-27T10:57:08.850Z,7.00
2023-03-27T10:59:44.823Z,6.00
2023-03-27T11:02:17.677Z,6.50
2023-03-27T11:05:02.861Z,3.90
2023-03-27T11:07:38.144Z,4.90
2023-03-27T11:10:23.370Z,5.70
2023-03-27T11:12:57.720Z,8.00
2023-03-27T11:15:39.810Z,5.70
2023-03-27T11:18:23.453Z,5.10
2023-03-27T11:20:56.915Z,4.60
2023-03-27T11:23:48.940Z,5.20
2023-03-27T11:26:18.904Z,5.60
2023-03-27T11:28:53.376Z,7.00
2023-03-27T11:31:38.999Z,4.70
2023-03-27T11:34:28.486Z,6.20
2023-03-27T11:37:19.775Z,3.50
2023-03-27T11:39:54.354Z,6.70
2023-03-27T11:42:26.926Z,4.50
2023-03-27T11:44:54.427Z,5.00
2023-03-27T11:47:25.319Z,5.40
2023-03-27T11:50:16.922Z,5.10
2023-03-27T11:53:21.873Z,5.10
2023-03-27T11:56:26.661Z,7.80
2023-03-27T11:59:23.139Z,7.00
2023-03-27T12:01:59.557Z,9.60
2023-03-27T12:04:54.208Z,3.80
2023-03-27T12:07:38.064Z,5.00
2023-03-27T12:10:29.066Z,2.70
2023-03-27T12:12:59.564Z,5.90
2023-03-27T12:15:54.761Z,5.70
2023-03-27T12:18:36.239Z,3.70
2023-03-27T12:21:17.951Z,16.50
2023-03-27T12:24:11.456Z,7.40
2023-03-27T12:26:56.720Z,7.10
2023-03-27T12:29:51.154Z,4.40
2023-03-27T12:32:42.773Z,3.30
2023-03-27T12:35:21.741Z,6.10
2023-03-27T12:38:37.961Z,9.70
2023-03-27T12:41:13.725Z,6.10
2023-03-27T12:43:46.460Z,8.00
2023-03-27T12:46:25.569Z,5.90
2023-03-27T12:49:12.993Z,4.50
2023-03-27T12:51:52.185Z,6.00
2023-03-27T12:54:26.850Z,6.00
2023-03-27T12:57:06.863Z,6.30
2023-03-27T12:59:55.056Z,4.40
2023-03-27T13:02:25.002Z,5.70
2023-03-27T13:05:24.485Z,6.20
2023-03-27T13:08:12.071Z,6.90
2023-03-27T13:10:38.911Z,6.30
2023-03-27T13:13:52.914Z,6.50
2023-03-27T13:16:38.818Z,6.80
2023-03-27T13:19:31.159Z,6.80
2023-03-27T13:22:24.993Z,5.50
2023-03-27T13:25:26.675Z,5.40
2023-03-27T13:28:12.053Z,4.30
2023-03-27T13:30:53.739Z,7.00
2023-03-27T13:33:23.383Z,4.80
2023-03-27T13:36:02.748Z,2.60
2023-03-27T13:38:49.549Z,11.60
2023-03-27T13:41:44.991Z,13.50
2023-03-27T13:44:29.138Z,51.20
2023-03-27T13:47:39.719Z,64.50
2023-03-27T13:50:14.858Z,46.30
2023-03-27T13:53:09.891Z,26.50
2023-03-27T13:56:05.713Z,17.60
2023-03-27T13:58:38.585Z,10.60
2023-03-27T14:01:13.298Z,14.70
2023-03-27T14:04:06.546Z,20.40
2023-03-27T14:06:36.694Z,11.10
2023-03-27T14:09:06.398Z,8.60
2023-03-27T14:12:02.512Z,22.60
2023-03-27T14:14:41.754Z,12.10
2023-03-27T14:17:27.144Z,8.70
2023-03-27T14:20:08.514Z,5.50
2023-03-27T14:22:44.204Z,16.00
2023-03-27T14:36:26.370Z,8.40
2023-03-27T14:38:53.357Z,10.60
2023-03-27T14:41:48.678Z,17.50
2023-03-27T14:44:18.796Z,4.50
2023-03-27T14:46:49.618Z,7.60
2023-03-27T14:49:24.892Z,3.40
2023-03-27T14:52:11.231Z,13.20
2023-03-27T14:54:55.059Z,13.30
2023-03-27T14:57:26.439Z,7.80
2023-03-27T14:59:59.423Z,8.90
2023-03-27T15:02:43.278Z,10.90
2023-03-27T15:05:14.114Z,14.70
2023-03-27T15:07:43.032Z,32.60
2023-03-27T15:10:28.357Z,14.80
2023-03-27T15:12:56.822Z,7.30
2023-03-27T15:15:31.339Z,9.50
2023-03-27T15:18:00.292Z,29.90
2023-03-27T15:20:30.613Z,27.50
2023-03-27T15:23:19.495Z,55.10
2023-03-27T15:26:12.695Z,132.70
2023-03-27T15:28:53.672Z,48.30
2023-03-27T15:31:21.265Z,37.20
2023-03-27T15:34:13.031Z,39.00
2023-03-27T15:36:43.775Z,63.50
2023-03-27T15:41:51.681Z,255.90
2023-03-27T15:44:22.075Z,70.50
2023-03-27T15:46:55.671Z,119.90
2023-03-27T15:49:27.754Z,31.90
2023-03-27T15:51:56.307Z,170.30
2023-03-27T15:54:29.827Z,91.40
2023-03-27T15:57:09.069Z,42.00
2023-03-27T15:59:52.175Z,70.40
2023-03-27T16:02:22.711Z,112.20
2023-03-27T16:04:56.865Z,183.90
2023-03-27T16:07:30.606Z,240.60
2023-03-27T16:10:05.348Z,99.10
2023-03-27T16:12:47.689Z,141.50
2023-03-27T16:15:45.407Z,148.50
2023-03-27T16:18:34.949Z,62.50
2023-03-27T16:21:10.499Z,50.70
2023-03-27T16:23:38.249Z,97.60
2023-03-27T16:26:09.187Z,122.80
2023-03-27T16:28:36.912Z,64.30
2023-03-27T16:31:16.819Z,191.80
2023-03-27T16:33:46.225Z,70.00
2023-03-27T16:36:15.666Z,68.10
2023-03-27T16:38:44.121Z,142.80
2023-03-27T16:41:15.971Z,188.70
2023-03-27T16:43:44.271Z,59.70
2023-03-27T16:46:37.891Z,194.00
2023-03-27T16:49:05.094Z,221.40
2023-03-27T16:51:32.376Z,60.80
2023-03-27T16:54:00.046Z,80.50
2023-03-27T16:56:27.355Z,42.00
2023-03-27T16:58:54.372Z,192.20
2023-03-27T17:01:24.295Z,51.20
2023-03-27T17:03:51.492Z,42.70
2023-03-27T17:06:19.653Z,93.40
2023-03-27T17:08:47.178Z,49.10
2023-03-27T17:11:14.174Z,35.80
2023-03-27T17:13:43.607Z,21.20
2023-03-27T17:16:11.119Z,16.60
2023-03-27T17:18:38.320Z,5.80
2023-03-27T17:21:05.356Z,6.10
2023-03-27T17:23:32.728Z,52.10
2023-03-27T17:26:02.141Z,28.90
2023-03-27T17:28:30.340Z,19.70
2023-03-27T17:31:04.470Z,21.20
2023-03-27T17:33:33.080Z,11.70
2023-03-27T17:36:00.365Z,36.50
2023-03-27T17:38:28.016Z,10.20
2023-03-27T17:40:55.331Z,8.30
2023-03-27T17:43:22.846Z,6.80
2023-03-27T17:45:51.438Z,12.00
2023-03-27T17:48:19.017Z,12.40
2023-03-27T17:51:01.126Z,6.10
2023-03-27T17:53:35.590Z,5.80
2023-03-27T17:56:02.543Z,9.40
2023-03-27T17:58:29.693Z,7.00
2023-03-27T18:00:56.767Z,5.50
2023-03-27T18:03:24.111Z,8.80
2023-03-27T18:05:51.272Z,8.80
2023-03-27T18:08:20.103Z,9.60
2023-03-27T18:10:51.309Z,8.30
2023-03-27T18:13:19.519Z,11.80
2023-03-27T18:15:47.284Z,8.50
2023-03-27T18:18:14.288Z,8.80
2023-03-27T18:20:41.569Z,9.80
2023-03-27T18:23:08.721Z,14.60
2023-03-27T18:25:36.608Z,13.40
2023-03-27T18:28:03.526Z,14.80
2023-03-27T18:30:32.200Z,14.20
2023-03-27T18:32:59.358Z,12.30
2023-03-27T18:35:26.503Z,10.40
2023-03-27T18:37:53.977Z,11.50
2023-03-27T18:40:21.421Z,9.40
2023-03-27T18:42:48.739Z,10.50
2023-03-27T18:45:17.107Z,9.60
2023-03-27T18:47:45.334Z,9.90
2023-03-27T18:50:14.314Z,8.20
2023-03-27T18:52:42.209Z,8.40
2023-03-27T18:55:11.565Z,6.40
2023-03-27T18:57:38.716Z,7.10
2023-03-27T19:00:08.949Z,8.40
2023-03-27T19:02:37.098Z,9.50
2023-03-27T19:05:05.025Z,8.50
2023-03-27T19:07:32.124Z,11.20
2023-03-27T19:09:59.675Z,10.90
2023-03-27T19:12:26.687Z,11.40
2023-03-27T19:14:53.810Z,8.70
2023-03-27T19:17:21.495Z,9.00
2023-03-27T19:19:48.692Z,12.80
2023-03-27T19:22:15.834Z,10.10
2023-03-27T19:24:42.866Z,10.60
2023-03-27T19:27:23.517Z,8.50
2023-03-27T19:29:53.098Z,10.60
2023-03-27T19:32:21.049Z,10.00
2023-03-27T19:34:48.150Z,17.30
2023-03-27T19:37:15.199Z,19.50
2023-03-27T19:39:42.033Z,20.50
2023-03-27T19:42:09.096Z,21.80
2023-03-27T19:44:38.370Z,19.60
2023-03-27T19:47:07.855Z,21.70
2023-03-27T19:49:34.823Z,15.80
2023-03-27T19:52:04.043Z,20.90
2023-03-27T19:54:32.122Z,16.90
2023-03-27T19:56:59.431Z,22.60
2023-03-27T19:59:30.846Z,22.90
2023-03-27T20:01:58.982Z,24.40
2023-03-27T20:04:26.629Z,23.20
2023-03-27T20:06:55.966Z,24.00
2023-03-27T20:09:22.972Z,25.70
2023-03-27T20:11:49.728Z,26.60
2023-03-27T20:14:16.961Z,23.30
2023-03-27T20:16:43.808Z,23.90
2023-03-27T20:19:11.023Z,23.50
2023-03-27T20:21:40.706Z,24.80
2023-03-27T20:24:10.446Z,20.80
2023-03-27T20:26:41.786Z,21.30
2023-03-27T20:29:12.383Z,22.70
2023-03-27T20:31:40.410Z,15.80
2023-03-27T20:34:07.978Z,16.10
2023-03-27T20:36:35.754Z,15.40
2023-03-27T20:39:06.321Z,20.70
2023-03-27T20:41:39.277Z,22.90
2023-03-27T20:44:16.714Z,23.40
2023-03-27T20:46:47.913Z,24.00
2023-03-27T20:49:40.160Z,25.10
2023-03-27T20:52:12.327Z,35.80
2023-03-27T20:54:41.851Z,32.90
2023-03-27T20:57:13.935Z,26.90
2023-03-27T20:59:47.467Z,19.60
2023-03-27T21:02:20.855Z,28.70
2023-03-27T21:04:53.167Z,26.50
2023-03-27T21:07:21.220Z,29.20
2023-03-27T21:09:48.670Z,30.50
2023-03-27T21:12:16.606Z,66.50
2023-03-27T21:14:43.552Z,56.60
2023-03-27T21:17:18.429Z,54.90
2023-03-27T21:19:45.297Z,59.80
2023-03-27T21:22:12.154Z,57.10
2023-03-27T21:24:44.825Z,49.30
2023-03-27T21:27:27.967Z,39.70
2023-03-27T21:29:58.059Z,46.30
2023-03-27T21:32:34.401Z,41.10
2023-03-27T21:35:07.168Z,32.90
2023-03-27T21:37:37.579Z,39.20
2023-03-27T21:40:05.365Z,34.60
2023-03-27T21:42:32.335Z,40.80
2023-03-27T21:44:59.187Z,44.10
2023-03-27T21:47:34.375Z,47.90
2023-03-27T21:50:05.126Z,41.10
2023-03-27T21:52:32.180Z,43.40
2023-03-27T21:55:03.262Z,37.50
2023-03-27T21:57:30.878Z,35.10
2023-03-27T21:59:58.157Z,30.00
2023-03-27T22:02:25.096Z,34.10
2023-03-27T22:04:52.073Z,26.30
2023-03-27T22:07:18.999Z,27.60
2023-03-27T22:09:46.234Z,29.10
2023-03-27T22:12:13.868Z,27.20
2023-03-27T22:14:40.738Z,26.70
2023-03-27T22:17:07.597Z,35.20
2023-03-27T22:19:34.401Z,40.20
2023-03-27T22:22:02.116Z,41.40
2023-03-27T22:24:29.950Z,47.60
2023-03-27T22:26:57.468Z,71.90
2023-03-27T22:29:24.308Z,88.90
2023-03-27T22:31:51.151Z,74.50
2023-03-27T22:34:18.107Z,75.50
2023-03-27T22:36:45.271Z,77.30
2023-03-27T22:39:12.386Z,57.30
2023-03-27T22:41:39.236Z,42.70
2023-03-27T22:44:06.268Z,48.70
2023-03-27T22:46:34.012Z,45.60
2023-03-27T22:49:01.408Z,35.60
2023-03-27T22:51:30.607Z,40.70
2023-03-27T22:53:58.134Z,44.40
2023-03-27T22:56:25.288Z,43.80
2023-03-27T22:58:52.476Z,36.50
2023-03-27T23:01:19.411Z,41.60
2023-03-27T23:03:46.724Z,34.10
2023-03-27T23:06:19.892Z,33.60
2023-03-27T23:08:49.523Z,37.20
2023-03-27T23:11:17.590Z,32.80
2023-03-27T23:13:45.433Z,28.70
2023-03-27T23:16:13.346Z,32.60
2023-03-27T23:18:40.981Z,37.00
2023-03-27T23:21:11.157Z,40.00
2023-03-27T23:23:40.756Z,36.50
2023-03-27T23:26:08.712Z,35.60
2023-03-27T23:28:38.757Z,30.90
2023-03-27T23:31:08.715Z,38.40
2023-03-27T23:33:39.159Z,25.00
2023-03-27T23:36:17.782Z,23.40
2023-03-27T23:38:48.650Z,21.30
2023-03-27T23:41:25.811Z,26.70
2023-03-27T23:44:00.814Z,20.50
2023-03-27T23:46:33.970Z,25.90
2023-03-27T23:49:09.162Z,24.90
2023-03-27T23:51:36.052Z,22.30
2023-03-27T23:54:02.997Z,25.70
2023-03-27T23:56:29.869Z,24.10
2023-03-27T23:58:56.985Z,26.20
